sensor_id;sensor_type;location;lat;lon;timestamp;pressure;altitude;pressure_sealevel;temperature;humidity
18678;BME280;9469;51.114;13.914;2023-07-13T00:01:26;98460.34;;;21.72;78.78
18678;BME280;9469;51.114;13.914;2023-07-13T00:06:32;98448.13;;;21.99;76.65
18678;BME280;9469;51.114;13.914;2023-07-13T00:11:38;98457.44;;;22.05;76.74
18678;BME280;9469;51.114;13.914;2023-07-13T00:16:46;98454.78;;;22.23;77.55
18678;BME280;9469;51.114;13.914;2023-07-13T00:21:52;98462.19;;;22.44;74.22
18678;BME280;9469;51.114;13.914;2023-07-13T00:26:58;98469.16;;;22.34;77.21
18678;BME280;9469;51.114;13.914;2023-07-13T00:32:09;98463.81;;;22.69;73.07
18678;BME280;9469;51.114;13.914;2023-07-13T00:37:14;98470.69;;;22.35;76.05
18678;BME280;9469;51.114;13.914;2023-07-13T00:42:20;98494.63;;;22.19;77.78
18678;BME280;9469;51.114;13.914;2023-07-13T00:47:30;98517.13;;;22.30;74.28
18678;BME280;9469;51.114;13.914;2023-07-13T00:52:42;98541.47;;;22.16;73.93
18678;BME280;9469;51.114;13.914;2023-07-13T00:57:50;98535.63;;;22.07;76.87
18678;BME280;9469;51.114;13.914;2023-07-13T01:03:00;98547.66;;;21.55;81.23
18678;BME280;9469;51.114;13.914;2023-07-13T01:08:07;98555.66;;;21.01;86.02
18678;BME280;9469;51.114;13.914;2023-07-13T01:13:13;98555.50;;;20.87;89.98
18678;BME280;9469;51.114;13.914;2023-07-13T01:18:25;98525.16;;;20.04;94.55
18678;BME280;9469;51.114;13.914;2023-07-13T01:23:33;98475.47;;;19.79;98.96
18678;BME280;9469;51.114;13.914;2023-07-13T01:28:38;98454.66;;;19.50;100.00
18678;BME280;9469;51.114;13.914;2023-07-13T01:33:44;98471.09;;;19.67;98.49
18678;BME280;9469;51.114;13.914;2023-07-13T01:38:52;98476.81;;;20.58;94.74
18678;BME280;9469;51.114;13.914;2023-07-13T01:43:58;98490.09;;;20.74;92.81
18678;BME280;9469;51.114;13.914;2023-07-13T01:49:03;98502.78;;;20.66;92.26
18678;BME280;9469;51.114;13.914;2023-07-13T01:54:11;98497.56;;;20.84;92.18
18678;BME280;9469;51.114;13.914;2023-07-13T01:59:17;98482.72;;;20.67;93.97
18678;BME280;9469;51.114;13.914;2023-07-13T02:04:23;98480.75;;;20.28;96.98
18678;BME280;9469;51.114;13.914;2023-07-13T02:09:31;98475.06;;;20.07;100.00
18678;BME280;9469;51.114;13.914;2023-07-13T02:14:37;98486.41;;;20.19;98.23
18678;BME280;9469;51.114;13.914;2023-07-13T02:19:42;98485.94;;;20.14;99.35
18678;BME280;9469;51.114;13.914;2023-07-13T02:24:50;98475.13;;;20.10;99.61
18678;BME280;9469;51.114;13.914;2023-07-13T02:29:56;98487.03;;;20.35;99.06
18678;BME280;9469;51.114;13.914;2023-07-13T02:35:07;98492.94;;;19.85;100.00
18678;BME280;9469;51.114;13.914;2023-07-13T02:40:17;98496.38;;;20.15;100.00
18678;BME280;9469;51.114;13.914;2023-07-13T02:45:22;98493.84;;;19.96;100.00
18678;BME280;9469;51.114;13.914;2023-07-13T02:50:30;98506.69;;;20.36;99.05
18678;BME280;9469;51.114;13.914;2023-07-13T02:55:38;98512.50;;;20.38;98.34
18678;BME280;9469;51.114;13.914;2023-07-13T03:00:49;98496.19;;;20.27;96.18
18678;BME280;9469;51.114;13.914;2023-07-13T03:05:59;98507.88;;;20.38;96.68
18678;BME280;9469;51.114;13.914;2023-07-13T03:11:17;98515.97;;;20.38;96.80
18678;BME280;9469;51.114;13.914;2023-07-13T03:16:29;98510.47;;;20.01;98.87
18678;BME280;9469;51.114;13.914;2023-07-13T03:21:34;98516.03;;;20.12;98.04
18678;BME280;9469;51.114;13.914;2023-07-13T03:26:43;98516.13;;;19.89;99.11
18678;BME280;9469;51.114;13.914;2023-07-13T03:31:49;98514.53;;;19.85;98.59
18678;BME280;9469;51.114;13.914;2023-07-13T03:36:56;98518.63;;;20.05;96.99
18678;BME280;9469;51.114;13.914;2023-07-13T03:42:06;98505.97;;;20.09;95.20
18678;BME280;9469;51.114;13.914;2023-07-13T03:47:13;98522.78;;;20.25;95.27
18678;BME280;9469;51.114;13.914;2023-07-13T03:52:19;98532.84;;;19.46;100.00
18678;BME280;9469;51.114;13.914;2023-07-13T03:57:28;98534.19;;;19.85;100.00
18678;BME280;9469;51.114;13.914;2023-07-13T04:02:34;98540.19;;;19.72;100.00
18678;BME280;9469;51.114;13.914;2023-07-13T04:07:40;98538.16;;;19.95;98.74
18678;BME280;9469;51.114;13.914;2023-07-13T04:12:49;98550.31;;;19.82;98.55
18678;BME280;9469;51.114;13.914;2023-07-13T04:17:54;98564.63;;;20.12;98.69
18678;BME280;9469;51.114;13.914;2023-07-13T04:23:02;98573.50;;;19.83;98.99
18678;BME280;9469;51.114;13.914;2023-07-13T04:28:10;98575.84;;;19.88;99.66
18678;BME280;9469;51.114;13.914;2023-07-13T04:33:15;98571.88;;;19.78;99.21
18678;BME280;9469;51.114;13.914;2023-07-13T04:38:24;98575.38;;;20.09;96.81
18678;BME280;9469;51.114;13.914;2023-07-13T04:43:33;98581.09;;;20.30;95.54
18678;BME280;9469;51.114;13.914;2023-07-13T04:48:38;98573.97;;;20.44;94.13
18678;BME280;9469;51.114;13.914;2023-07-13T04:53:44;98574.81;;;20.52;94.23
18678;BME280;9469;51.114;13.914;2023-07-13T04:58:57;98574.88;;;20.59;94.35
18678;BME280;9469;51.114;13.914;2023-07-13T05:04:03;98574.69;;;20.15;98.51
18678;BME280;9469;51.114;13.914;2023-07-13T05:09:09;98591.00;;;20.48;95.41
18678;BME280;9469;51.114;13.914;2023-07-13T05:14:17;98591.72;;;20.79;95.00
18678;BME280;9469;51.114;13.914;2023-07-13T05:19:26;98592.66;;;21.81;90.53
18678;BME280;9469;51.114;13.914;2023-07-13T05:24:57;98591.66;;;22.68;86.70
18678;BME280;9469;51.114;13.914;2023-07-13T05:30:06;98580.16;;;22.17;87.21
18678;BME280;9469;51.114;13.914;2023-07-13T05:35:13;98575.00;;;22.80;82.04
18678;BME280;9469;51.114;13.914;2023-07-13T05:40:19;98573.94;;;23.23;77.30
18678;BME280;9469;51.114;13.914;2023-07-13T05:45:27;98583.19;;;22.94;78.74
18678;BME280;9469;51.114;13.914;2023-07-13T05:50:32;98589.84;;;23.18;79.95
18678;BME280;9469;51.114;13.914;2023-07-13T05:55:41;98586.50;;;25.36;72.18
18678;BME280;9469;51.114;13.914;2023-07-13T06:00:59;98584.88;;;26.35;68.53
18678;BME280;9469;51.114;13.914;2023-07-13T06:06:06;98570.09;;;26.92;67.68
18678;BME280;9469;51.114;13.914;2023-07-13T06:11:17;98577.81;;;26.00;69.83
18678;BME280;9469;51.114;13.914;2023-07-13T06:16:26;98581.97;;;25.19;70.23
18678;BME280;9469;51.114;13.914;2023-07-13T06:21:49;98581.13;;;27.39;65.07
18678;BME280;9469;51.114;13.914;2023-07-13T06:26:59;98585.88;;;26.10;69.02
18678;BME280;9469;51.114;13.914;2023-07-13T06:32:11;98588.22;;;25.71;68.54
18678;BME280;9469;51.114;13.914;2023-07-13T06:37:19;98584.97;;;26.88;66.88
18678;BME280;9469;51.114;13.914;2023-07-13T06:42:28;98593.25;;;29.54;58.16
18678;BME280;9469;51.114;13.914;2023-07-13T06:47:38;98587.72;;;29.57;58.29
18678;BME280;9469;51.114;13.914;2023-07-13T06:52:43;98596.50;;;29.97;57.24
18678;BME280;9469;51.114;13.914;2023-07-13T06:57:50;98610.13;;;27.79;61.64
18678;BME280;9469;51.114;13.914;2023-07-13T07:03:02;98629.50;;;26.81;63.67
18678;BME280;9469;51.114;13.914;2023-07-13T07:08:12;98630.84;;;25.88;64.46
18678;BME280;9469;51.114;13.914;2023-07-13T07:13:23;98627.00;;;24.51;68.49
18678;BME280;9469;51.114;13.914;2023-07-13T07:18:34;98629.00;;;24.30;67.80
18678;BME280;9469;51.114;13.914;2023-07-13T07:23:43;98627.25;;;24.92;68.74
18678;BME280;9469;51.114;13.914;2023-07-13T07:28:49;98635.44;;;27.07;62.87
18678;BME280;9469;51.114;13.914;2023-07-13T07:34:17;98636.25;;;26.36;63.58
18678;BME280;9469;51.114;13.914;2023-07-13T07:39:25;98649.94;;;24.43;67.77
18678;BME280;9469;51.114;13.914;2023-07-13T07:44:31;98658.72;;;25.58;65.08
18678;BME280;9469;51.114;13.914;2023-07-13T07:49:42;98645.50;;;26.05;63.18
18678;BME280;9469;51.114;13.914;2023-07-13T07:54:48;98644.63;;;26.18;63.29
18678;BME280;9469;51.114;13.914;2023-07-13T07:59:56;98645.72;;;25.22;64.36
18678;BME280;9469;51.114;13.914;2023-07-13T08:05:31;98643.50;;;25.03;62.86
18678;BME280;9469;51.114;13.914;2023-07-13T08:11:03;98651.59;;;25.75;61.17
18678;BME280;9469;51.114;13.914;2023-07-13T08:16:37;98647.91;;;26.40;61.03
18678;BME280;9469;51.114;13.914;2023-07-13T08:27:55;98656.97;;;26.30;59.52
18678;BME280;9469;51.114;13.914;2023-07-13T08:33:03;98656.44;;;26.42;60.65
18678;BME280;9469;51.114;13.914;2023-07-13T08:38:08;98663.50;;;27.07;58.16
18678;BME280;9469;51.114;13.914;2023-07-13T08:43:28;98661.19;;;27.86;57.25
18678;BME280;9469;51.114;13.914;2023-07-13T08:48:37;98661.13;;;26.42;59.62
18678;BME280;9469;51.114;13.914;2023-07-13T08:53:48;98664.44;;;26.60;59.67
18678;BME280;9469;51.114;13.914;2023-07-13T08:59:05;98668.28;;;26.62;58.37
18678;BME280;9469;51.114;13.914;2023-07-13T09:04:19;98653.00;;;26.72;58.86
18678;BME280;9469;51.114;13.914;2023-07-13T09:09:45;98666.84;;;26.88;59.12
18678;BME280;9469;51.114;13.914;2023-07-13T09:15:01;98672.38;;;26.84;57.59
18678;BME280;9469;51.114;13.914;2023-07-13T09:20:23;98675.16;;;26.44;57.68
18678;BME280;9469;51.114;13.914;2023-07-13T09:25:42;98671.00;;;27.80;55.71
18678;BME280;9469;51.114;13.914;2023-07-13T09:31:23;98665.47;;;27.03;56.76
18678;BME280;9469;51.114;13.914;2023-07-13T09:37:10;98669.72;;;27.34;57.58
18678;BME280;9469;51.114;13.914;2023-07-13T10:05:43;98705.66;;;26.31;58.46
18678;BME280;9469;51.114;13.914;2023-07-13T10:11:02;98707.41;;;27.77;55.84
18678;BME280;9469;51.114;13.914;2023-07-13T10:22:20;98707.63;;;26.68;55.62
18678;BME280;9469;51.114;13.914;2023-07-13T10:45:35;98701.06;;;26.21;56.28
18678;BME280;9469;51.114;13.914;2023-07-13T10:50:46;98696.97;;;26.44;55.88
18678;BME280;9469;51.114;13.914;2023-07-13T10:56:29;98679.84;;;27.64;54.04
18678;BME280;9469;51.114;13.914;2023-07-13T11:01:58;98675.75;;;26.95;55.44
18678;BME280;9469;51.114;13.914;2023-07-13T11:07:30;98686.13;;;27.88;53.55
18678;BME280;9469;51.114;13.914;2023-07-13T11:12:51;98675.28;;;27.57;53.86
18678;BME280;9469;51.114;13.914;2023-07-13T11:18:21;98678.88;;;27.24;53.60
18678;BME280;9469;51.114;13.914;2023-07-13T11:23:31;98667.66;;;27.72;53.35
18678;BME280;9469;51.114;13.914;2023-07-13T11:28:41;98667.91;;;26.64;55.59
18678;BME280;9469;51.114;13.914;2023-07-13T11:33:59;98664.69;;;26.39;56.72
18678;BME280;9469;51.114;13.914;2023-07-13T11:39:24;98695.59;;;26.21;57.13
18678;BME280;9469;51.114;13.914;2023-07-13T11:44:42;98683.00;;;26.72;55.73
18678;BME280;9469;51.114;13.914;2023-07-13T11:50:28;98686.16;;;27.04;53.58
18678;BME280;9469;51.114;13.914;2023-07-13T11:55:48;98675.25;;;27.31;52.81
18678;BME280;9469;51.114;13.914;2023-07-13T12:01:02;98668.97;;;27.07;52.56
18678;BME280;9469;51.114;13.914;2023-07-13T12:06:26;98669.16;;;27.20;55.42
18678;BME280;9469;51.114;13.914;2023-07-13T12:17:48;98651.19;;;27.22;57.13
18678;BME280;9469;51.114;13.914;2023-07-13T12:23:34;98659.84;;;27.94;55.58
18678;BME280;9469;51.114;13.914;2023-07-13T12:28:55;98653.88;;;28.02;54.80
18678;BME280;9469;51.114;13.914;2023-07-13T12:40:35;98645.19;;;28.30;52.15
18678;BME280;9469;51.114;13.914;2023-07-13T12:46:35;98659.09;;;27.43;52.81
18678;BME280;9469;51.114;13.914;2023-07-13T12:51:45;98651.81;;;27.07;53.24
18678;BME280;9469;51.114;13.914;2023-07-13T12:57:17;98658.31;;;26.86;52.46
18678;BME280;9469;51.114;13.914;2023-07-13T13:02:33;98643.09;;;27.68;51.79
18678;BME280;9469;51.114;13.914;2023-07-13T13:07:51;98649.16;;;28.26;50.39
18678;BME280;9469;51.114;13.914;2023-07-13T13:13:05;98650.34;;;28.87;50.17
18678;BME280;9469;51.114;13.914;2023-07-13T13:18:20;98644.59;;;28.19;51.29
18678;BME280;9469;51.114;13.914;2023-07-13T13:23:33;98635.72;;;27.89;51.84
18678;BME280;9469;51.114;13.914;2023-07-13T13:28:51;98640.31;;;28.18;50.78
18678;BME280;9469;51.114;13.914;2023-07-13T13:34:01;98647.63;;;27.25;51.18
18678;BME280;9469;51.114;13.914;2023-07-13T13:39:22;98640.88;;;27.33;51.26
18678;BME280;9469;51.114;13.914;2023-07-13T13:44:49;98625.78;;;28.64;49.47
18678;BME280;9469;51.114;13.914;2023-07-13T13:50:23;98648.03;;;28.66;49.36
18678;BME280;9469;51.114;13.914;2023-07-13T13:55:34;98655.69;;;27.62;51.04
18678;BME280;9469;51.114;13.914;2023-07-13T14:00:43;98648.84;;;28.01;50.02
18678;BME280;9469;51.114;13.914;2023-07-13T14:05:54;98633.84;;;28.52;49.87
18678;BME280;9469;51.114;13.914;2023-07-13T14:11:01;98649.28;;;27.73;51.22
18678;BME280;9469;51.114;13.914;2023-07-13T14:16:19;98634.03;;;28.41;50.09
18678;BME280;9469;51.114;13.914;2023-07-13T14:21:34;98638.97;;;27.84;51.51
18678;BME280;9469;51.114;13.914;2023-07-13T14:26:57;98644.31;;;28.76;50.25
18678;BME280;9469;51.114;13.914;2023-07-13T14:32:16;98648.91;;;27.94;50.74
18678;BME280;9469;51.114;13.914;2023-07-13T14:37:30;98636.09;;;27.91;51.37
18678;BME280;9469;51.114;13.914;2023-07-13T14:48:28;98620.47;;;28.34;50.65
18678;BME280;9469;51.114;13.914;2023-07-13T14:53:39;98639.63;;;27.41;51.53
18678;BME280;9469;51.114;13.914;2023-07-13T14:59:07;98641.91;;;28.16;50.60
18678;BME280;9469;51.114;13.914;2023-07-13T15:04:38;98627.53;;;28.12;50.47
18678;BME280;9469;51.114;13.914;2023-07-13T15:10:08;98629.25;;;27.56;50.05
18678;BME280;9469;51.114;13.914;2023-07-13T15:15:56;98615.72;;;27.95;50.16
18678;BME280;9469;51.114;13.914;2023-07-13T15:21:23;98631.72;;;28.39;48.88
18678;BME280;9469;51.114;13.914;2023-07-13T15:27:01;98632.59;;;27.90;48.74
18678;BME280;9469;51.114;13.914;2023-07-13T15:32:22;98634.25;;;27.84;49.47
18678;BME280;9469;51.114;13.914;2023-07-13T15:50:14;98638.97;;;27.30;48.66
18678;BME280;9469;51.114;13.914;2023-07-13T15:55:48;98648.88;;;27.97;47.82
18678;BME280;9469;51.114;13.914;2023-07-13T16:01:09;98653.78;;;27.59;48.14
18678;BME280;9469;51.114;13.914;2023-07-13T16:06:28;98644.41;;;27.60;47.57
18678;BME280;9469;51.114;13.914;2023-07-13T16:11:41;98646.97;;;27.71;47.08
18678;BME280;9469;51.114;13.914;2023-07-13T16:16:53;98639.75;;;27.57;47.38
18678;BME280;9469;51.114;13.914;2023-07-13T16:22:13;98641.13;;;27.69;46.84
18678;BME280;9469;51.114;13.914;2023-07-13T16:27:43;98650.53;;;27.41;47.03
18678;BME280;9469;51.114;13.914;2023-07-13T16:33:17;98657.09;;;27.47;46.64
18678;BME280;9469;51.114;13.914;2023-07-13T16:38:57;98658.66;;;27.18;46.77
18678;BME280;9469;51.114;13.914;2023-07-13T16:44:15;98668.56;;;27.35;46.69
18678;BME280;9469;51.114;13.914;2023-07-13T16:49:28;98680.53;;;27.71;47.15
18678;BME280;9469;51.114;13.914;2023-07-13T16:54:57;98680.13;;;28.00;47.02
18678;BME280;9469;51.114;13.914;2023-07-13T17:00:21;98693.56;;;27.34;46.52
18678;BME280;9469;51.114;13.914;2023-07-13T17:05:42;98684.31;;;27.24;47.19
18678;BME280;9469;51.114;13.914;2023-07-13T17:11:03;98688.59;;;26.95;48.33
18678;BME280;9469;51.114;13.914;2023-07-13T17:16:28;98715.59;;;26.04;48.94
18678;BME280;9469;51.114;13.914;2023-07-13T17:21:55;98705.91;;;26.00;49.35
18678;BME280;9469;51.114;13.914;2023-07-13T17:27:24;98702.31;;;25.62;49.68
18678;BME280;9469;51.114;13.914;2023-07-13T17:32:43;98706.56;;;26.18;48.82
18678;BME280;9469;51.114;13.914;2023-07-13T17:37:59;98709.22;;;26.25;49.11
18678;BME280;9469;51.114;13.914;2023-07-13T17:43:14;98705.16;;;26.40;48.95
18678;BME280;9469;51.114;13.914;2023-07-13T17:48:24;98718.50;;;26.31;49.13
18678;BME280;9469;51.114;13.914;2023-07-13T17:53:39;98712.13;;;26.00;49.46
18678;BME280;9469;51.114;13.914;2023-07-13T18:11:04;98742.72;;;25.71;50.43
18678;BME280;9469;51.114;13.914;2023-07-13T18:16:20;98742.50;;;25.99;50.13
18678;BME280;9469;51.114;13.914;2023-07-13T18:21:30;98746.97;;;25.75;50.00
18678;BME280;9469;51.114;13.914;2023-07-13T18:26:40;98752.94;;;25.49;50.82
18678;BME280;9469;51.114;13.914;2023-07-13T18:31:46;98755.41;;;25.15;51.61
18678;BME280;9469;51.114;13.914;2023-07-13T18:36:53;98754.69;;;25.04;51.68
18678;BME280;9469;51.114;13.914;2023-07-13T18:42:07;98766.38;;;24.90;51.36
18678;BME280;9469;51.114;13.914;2023-07-13T18:47:16;98753.22;;;24.78;51.58
18678;BME280;9469;51.114;13.914;2023-07-13T18:52:26;98759.44;;;24.54;51.95
18678;BME280;9469;51.114;13.914;2023-07-13T18:57:37;98775.38;;;24.20;52.59
18678;BME280;9469;51.114;13.914;2023-07-13T19:02:43;98795.19;;;24.24;53.03
18678;BME280;9469;51.114;13.914;2023-07-13T19:07:51;98800.25;;;24.37;52.86
18678;BME280;9469;51.114;13.914;2023-07-13T19:13:02;98801.81;;;24.13;53.47
18678;BME280;9469;51.114;13.914;2023-07-13T19:18:13;98811.88;;;24.05;53.13
18678;BME280;9469;51.114;13.914;2023-07-13T19:23:25;98810.34;;;24.29;53.12
18678;BME280;9469;51.114;13.914;2023-07-13T19:28:37;98823.94;;;24.15;54.88
18678;BME280;9469;51.114;13.914;2023-07-13T19:33:43;98825.84;;;24.04;55.30
18678;BME280;9469;51.114;13.914;2023-07-13T19:38:50;98839.44;;;24.11;55.08
18678;BME280;9469;51.114;13.914;2023-07-13T19:44:04;98849.78;;;23.67;56.77
18678;BME280;9469;51.114;13.914;2023-07-13T19:49:11;98841.63;;;23.67;56.78
18678;BME280;9469;51.114;13.914;2023-07-13T19:54:19;98857.53;;;23.68;57.33
18678;BME280;9469;51.114;13.914;2023-07-13T19:59:32;98860.03;;;23.22;57.90
18678;BME280;9469;51.114;13.914;2023-07-13T20:04:38;98854.63;;;23.29;59.09
18678;BME280;9469;51.114;13.914;2023-07-13T20:09:49;98869.91;;;22.94;60.18
18678;BME280;9469;51.114;13.914;2023-07-13T20:14:58;98869.97;;;22.97;59.23
18678;BME280;9469;51.114;13.914;2023-07-13T20:20:25;98872.81;;;22.24;61.73
18678;BME280;9469;51.114;13.914;2023-07-13T20:25:32;98882.97;;;21.93;62.59
18678;BME280;9469;51.114;13.914;2023-07-13T20:30:43;98887.97;;;21.91;63.44
18678;BME280;9469;51.114;13.914;2023-07-13T20:35:51;98892.19;;;21.89;64.01
18678;BME280;9469;51.114;13.914;2023-07-13T20:40:59;98880.88;;;21.50;65.69
18678;BME280;9469;51.114;13.914;2023-07-13T20:46:12;98889.91;;;21.61;66.82
18678;BME280;9469;51.114;13.914;2023-07-13T20:51:22;98901.09;;;21.60;67.59
18678;BME280;9469;51.114;13.914;2023-07-13T20:56:29;98899.94;;;21.31;69.18
18678;BME280;9469;51.114;13.914;2023-07-13T21:01:38;98904.19;;;21.32;69.22
18678;BME280;9469;51.114;13.914;2023-07-13T21:06:44;98918.56;;;21.10;70.19
18678;BME280;9469;51.114;13.914;2023-07-13T21:11:51;98922.03;;;20.88;71.37
18678;BME280;9469;51.114;13.914;2023-07-13T21:17:01;98918.19;;;20.62;72.71
18678;BME280;9469;51.114;13.914;2023-07-13T21:22:40;98929.81;;;20.44;73.15
18678;BME280;9469;51.114;13.914;2023-07-13T21:27:52;98951.75;;;20.61;72.61
18678;BME280;9469;51.114;13.914;2023-07-13T21:33:02;98952.28;;;20.70;67.12
18678;BME280;9469;51.114;13.914;2023-07-13T21:38:16;98955.41;;;21.18;66.72
18678;BME280;9469;51.114;13.914;2023-07-13T21:43:24;98954.63;;;20.72;67.71
18678;BME280;9469;51.114;13.914;2023-07-13T21:48:34;98967.69;;;21.12;67.06
18678;BME280;9469;51.114;13.914;2023-07-13T21:53:39;98972.00;;;20.94;67.21
18678;BME280;9469;51.114;13.914;2023-07-13T21:58:46;98987.78;;;20.69;67.92
18678;BME280;9469;51.114;13.914;2023-07-13T22:03:58;98986.03;;;20.57;68.50
18678;BME280;9469;51.114;13.914;2023-07-13T22:09:07;98997.22;;;20.79;68.16
18678;BME280;9469;51.114;13.914;2023-07-13T22:14:16;98995.94;;;20.50;70.08
18678;BME280;9469;51.114;13.914;2023-07-13T22:19:29;98990.25;;;20.36;70.18
18678;BME280;9469;51.114;13.914;2023-07-13T22:24:35;99002.25;;;20.38;69.81
18678;BME280;9469;51.114;13.914;2023-07-13T22:29:41;98998.94;;;20.26;70.60
18678;BME280;9469;51.114;13.914;2023-07-13T22:34:51;99004.88;;;19.96;72.00
18678;BME280;9469;51.114;13.914;2023-07-13T22:39:57;98998.97;;;19.56;74.31
18678;BME280;9469;51.114;13.914;2023-07-13T22:45:04;98999.22;;;19.67;73.74
18678;BME280;9469;51.114;13.914;2023-07-13T22:50:17;99007.19;;;19.79;73.06
18678;BME280;9469;51.114;13.914;2023-07-13T22:55:22;99012.22;;;20.53;71.35
18678;BME280;9469;51.114;13.914;2023-07-13T23:00:28;99011.94;;;20.39;71.05
18678;BME280;9469;51.114;13.914;2023-07-13T23:05:37;99013.81;;;20.20;72.26
18678;BME280;9469;51.114;13.914;2023-07-13T23:10:44;99026.84;;;19.60;74.95
18678;BME280;9469;51.114;13.914;2023-07-13T23:15:56;99018.63;;;19.38;76.18
18678;BME280;9469;51.114;13.914;2023-07-13T23:21:07;99034.78;;;19.22;77.47
18678;BME280;9469;51.114;13.914;2023-07-13T23:26:18;99029.81;;;19.08;78.22
18678;BME280;9469;51.114;13.914;2023-07-13T23:31:27;99026.94;;;19.01;78.99
18678;BME280;9469;51.114;13.914;2023-07-13T23:36:36;99015.91;;;19.38;76.92
18678;BME280;9469;51.114;13.914;2023-07-13T23:41:42;99025.03;;;19.17;77.04
18678;BME280;9469;51.114;13.914;2023-07-13T23:46:50;99023.53;;;19.04;78.31
18678;BME280;9469;51.114;13.914;2023-07-13T23:52:00;99029.88;;;18.81;79.77
18678;BME280;9469;51.114;13.914;2023-07-13T23:57:08;99030.59;;;19.24;76.13
